Time,TemperatureF,DewpointF,PressureIn,WindDirection,WindDirectionDegrees,WindSpeedMPH,WindSpeedGustMPH,Humidity,HourlyPrecipIn,Conditions,Clouds,dailyrainin,SoftwareType,DateUTC
2013-08-12 00:10:00,72.8,56.0,29.83,SE,135,0.0,4.0,56,0.00,,,0.00,weatherlink.com 1.10,2013-08-12 06:10:00,
2013-08-12 00:25:00,72.4,56.0,29.83,SE,136,0.0,2.0,57,0.00,,,0.00,weatherlink.com 1.10,2013-08-12 06:25:00,
2013-08-12 00:40:00,71.9,57.0,29.83,SSE,152,0.0,2.0,60,0.00,,,0.00,weatherlink.com 1.10,2013-08-12 06:40:00,
2013-08-12 00:55:00,70.7,56.0,29.83,ESE,121,0.0,0.0,61,0.00,,,0.00,weatherlink.com 1.10,2013-08-12 06:55:00,
2013-08-12 01:10:00,70.3,57.0,29.83,ESE,122,0.0,0.0,63,0.00,,,0.00,weatherlink.com 1.10,2013-08-12 07:10:00,
2013-08-12 01:25:00,71.6,57.0,29.83,ESE,121,0.0,1.0,60,0.00,,,0.00,weatherlink.com 1.10,2013-08-12 07:25:00,
2013-08-12 01:40:00,69.8,57.0,29.82,ESE,121,0.0,0.0,64,0.00,,,0.00,weatherlink.com 1.10,2013-08-12 07:40:00,
2013-08-12 01:55:00,68.8,57.0,29.82,SSE,148,0.0,1.0,66,0.00,,,0.00,weatherlink.com 1.10,2013-08-12 07:55:00,
2013-08-12 02:10:00,68.4,57.0,29.82,SSE,148,0.0,1.0,68,0.00,,,0.00,weatherlink.com 1.10,2013-08-12 08:10:00,
2013-08-12 02:25:00,69.3,57.0,29.82,SSE,155,0.0,1.0,65,0.00,,,0.00,weatherlink.com 1.10,2013-08-12 08:25:00,
2013-08-12 02:40:00,69.1,57.0,29.82,SSE,155,0.0,1.0,66,0.00,,,0.00,weatherlink.com 1.10,2013-08-12 08:40:00,
2013-08-12 02:55:00,69.2,57.0,29.82,SSW,198,0.0,2.0,65,0.00,,,0.00,weatherlink.com 1.10,2013-08-12 08:55:00,
2013-08-12 03:10:00,69.0,57.0,29.81,SE,131,0.0,1.0,66,0.00,,,0.00,weatherlink.com 1.10,2013-08-12 09:10:00,
2013-08-12 03:25:00,69.0,57.0,29.82,SE,128,0.0,4.0,66,0.00,,,0.00,weatherlink.com 1.10,2013-08-12 09:25:00,
2013-08-12 03:40:00,68.7,55.0,29.82,SE,141,5.0,7.0,63,0.00,,,0.00,weatherlink.com 1.10,2013-08-12 09:40:00,
2013-08-12 03:56:00,68.2,55.0,29.82,ESE,120,3.0,5.0,62,0.00,,,0.00,weatherlink.com 1.10,2013-08-12 09:56:00,
2013-08-12 04:10:00,68.6,54.0,29.83,ESE,117,1.0,5.0,61,0.00,,,0.00,weatherlink.com 1.10,2013-08-12 10:10:00,
2013-08-12 04:25:00,69.1,54.0,29.82,SE,125,4.0,4.0,60,0.00,,,0.00,weatherlink.com 1.10,2013-08-12 10:25:00,
2013-08-12 04:40:00,69.4,54.0,29.83,SSE,155,0.0,3.0,59,0.00,,,0.00,weatherlink.com 1.10,2013-08-12 10:40:00,
2013-08-12 04:55:00,69.3,54.0,29.82,SE,128,0.0,2.0,59,0.00,,,0.00,weatherlink.com 1.10,2013-08-12 10:55:00,
2013-08-12 05:10:00,69.5,55.0,29.82,ESE,115,0.0,0.0,60,0.00,,,0.00,weatherlink.com 1.10,2013-08-12 11:10:00,
2013-08-12 05:25:00,68.9,56.0,29.82,ESE,115,0.0,0.0,63,0.00,,,0.00,weatherlink.com 1.10,2013-08-12 11:25:00,
2013-08-12 05:40:00,68.2,55.0,29.82,ESE,114,0.0,0.0,64,0.00,,,0.00,weatherlink.com 1.10,2013-08-12 11:40:00,
2013-08-12 05:55:00,68.0,56.0,29.82,SW,214,0.0,1.0,66,0.00,,,0.00,weatherlink.com 1.10,2013-08-12 11:55:00,
2013-08-12 06:10:00,68.2,56.0,29.83,ESE,115,4.0,7.0,65,0.00,,,0.00,weatherlink.com 1.10,2013-08-12 12:10:00,
2013-08-12 06:25:00,67.1,57.0,29.83,SSE,152,3.0,12.0,69,0.00,,,0.00,weatherlink.com 1.10,2013-08-12 12:25:00,
2013-08-12 06:40:00,65.9,56.0,29.83,ESE,108,7.0,11.0,71,0.00,,,0.00,weatherlink.com 1.10,2013-08-12 12:40:00,
2013-08-12 06:55:00,65.8,56.0,29.83,SSE,148,5.0,11.0,70,0.00,,,0.00,weatherlink.com 1.10,2013-08-12 12:55:00,
2013-08-12 07:10:00,66.3,56.0,29.83,SE,143,1.0,11.0,69,0.00,,,0.00,weatherlink.com 1.10,2013-08-12 13:10:00,
2013-08-12 07:26:00,66.3,56.0,29.84,WSW,256,3.0,7.0,70,0.00,,,0.00,weatherlink.com 1.10,2013-08-12 13:26:00,
2013-08-12 07:42:00,66.8,57.0,29.84,SW,225,0.0,2.0,70,0.00,,,0.00,weatherlink.com 1.10,2013-08-12 13:42:00,
2013-08-12 07:56:00,67.2,57.0,29.84,South,176,1.0,2.0,71,0.00,,,0.00,weatherlink.com 1.10,2013-08-12 13:56:00,
2013-08-12 08:11:00,67.7,57.0,29.85,South,170,0.0,2.0,69,0.00,,,0.00,weatherlink.com 1.10,2013-08-12 14:11:00,
2013-08-12 08:26:00,67.7,58.0,29.85,SW,228,0.0,2.0,70,0.00,,,0.00,weatherlink.com 1.10,2013-08-12 14:26:00,
2013-08-12 08:41:00,67.5,58.0,29.86,SW,225,2.0,4.0,71,0.00,,,0.00,weatherlink.com 1.10,2013-08-12 14:41:00,
2013-08-12 08:56:00,67.7,58.0,29.86,SSW,200,0.0,2.0,72,0.00,,,0.00,weatherlink.com 1.10,2013-08-12 14:56:00,
2013-08-12 09:11:00,68.1,59.0,29.87,South,178,1.0,4.0,72,0.00,,,0.00,weatherlink.com 1.10,2013-08-12 15:11:00,
2013-08-12 09:26:00,67.9,59.0,29.87,SSW,195,5.0,7.0,72,0.00,,,0.00,weatherlink.com 1.10,2013-08-12 15:26:00,
2013-08-12 09:41:00,67.6,59.0,29.87,ESE,115,1.0,6.0,74,0.00,,,0.00,weatherlink.com 1.10,2013-08-12 15:41:00,
2013-08-12 09:56:00,68.1,59.0,29.88,WSW,240,1.0,6.0,73,0.00,,,0.00,weatherlink.com 1.10,2013-08-12 15:56:00,
2013-08-12 10:11:00,68.1,59.0,29.88,SW,232,3.0,6.0,72,0.00,,,0.00,weatherlink.com 1.10,2013-08-12 16:11:00,
2013-08-12 10:26:00,68.8,59.0,29.88,WSW,252,2.0,6.0,70,0.00,,,0.00,weatherlink.com 1.10,2013-08-12 16:26:00,
2013-08-12 10:41:00,69.2,59.0,29.89,SW,235,0.0,5.0,71,0.00,,,0.00,weatherlink.com 1.10,2013-08-12 16:41:00,
2013-08-12 10:56:00,69.9,58.0,29.88,SW,229,3.0,4.0,67,0.00,,,0.00,weatherlink.com 1.10,2013-08-12 16:56:00,
2013-08-12 11:11:00,70.6,58.0,29.89,ESE,118,3.0,4.0,65,0.00,,,0.00,weatherlink.com 1.10,2013-08-12 17:11:00,
2013-08-12 11:26:00,71.7,59.0,29.88,South,176,2.0,5.0,64,0.00,,,0.00,weatherlink.com 1.10,2013-08-12 17:26:00,
2013-08-12 11:41:00,73.4,59.0,29.87,WSW,253,2.0,4.0,60,0.00,,,0.00,weatherlink.com 1.10,2013-08-12 17:41:00,
2013-08-12 11:56:00,74.2,59.0,29.86,SW,236,1.0,3.0,60,0.00,,,0.00,weatherlink.com 1.10,2013-08-12 17:56:00,
2013-08-12 12:11:00,77.1,59.0,29.86,SSE,158,0.0,5.0,54,0.00,,,0.00,weatherlink.com 1.10,2013-08-12 18:11:00,
2013-08-12 12:29:00,77.6,56.0,29.84,SE,146,5.0,7.0,48,0.00,,,0.00,weatherlink.com 1.10,2013-08-12 18:29:00,
2013-08-12 12:41:00,77.6,57.0,29.83,NNE,29,3.0,7.0,50,0.00,,,0.00,weatherlink.com 1.10,2013-08-12 18:41:00,
2013-08-12 12:56:00,79.0,56.0,29.83,SE,136,3.0,8.0,45,0.00,,,0.00,weatherlink.com 1.10,2013-08-12 18:56:00,
2013-08-12 13:11:00,79.2,56.0,29.82,SE,145,1.0,8.0,45,0.00,,,0.00,weatherlink.com 1.10,2013-08-12 19:11:00,
2013-08-12 13:26:00,79.0,56.0,29.81,ESE,103,5.0,7.0,45,0.00,,,0.00,weatherlink.com 1.10,2013-08-12 19:26:00,
2013-08-12 13:41:00,81.6,56.0,29.80,ESE,106,1.0,6.0,41,0.00,,,0.00,weatherlink.com 1.10,2013-08-12 19:41:00,
2013-08-12 13:56:00,82.2,56.0,29.80,SW,224,1.0,7.0,40,0.00,,,0.00,weatherlink.com 1.10,2013-08-12 19:56:00,
2013-08-12 14:11:00,83.1,56.0,29.79,South,170,7.0,9.0,39,0.00,,,0.00,weatherlink.com 1.10,2013-08-12 20:11:00,
2013-08-12 14:26:00,84.7,56.0,29.78,West,278,4.0,6.0,37,0.00,,,0.00,weatherlink.com 1.10,2013-08-12 20:26:00,
2013-08-12 14:41:00,86.6,56.0,29.77,SW,219,4.0,4.0,35,0.00,,,0.00,weatherlink.com 1.10,2013-08-12 20:41:00,
2013-08-12 14:56:00,86.5,57.0,29.77,WSW,255,4.0,4.0,36,0.00,,,0.00,weatherlink.com 1.10,2013-08-12 20:56:00,
2013-08-12 15:11:00,85.9,56.0,29.76,SE,136,2.0,7.0,36,0.00,,,0.00,weatherlink.com 1.10,2013-08-12 21:11:00,
2013-08-12 15:26:00,87.6,57.0,29.75,SSW,203,1.0,5.0,35,0.00,,,0.00,weatherlink.com 1.10,2013-08-12 21:26:00,
2013-08-12 15:41:00,87.6,54.0,29.75,SE,139,1.0,6.0,32,0.00,,,0.00,weatherlink.com 1.10,2013-08-12 21:41:00,
2013-08-12 15:57:00,86.0,55.0,29.75,SSW,195,4.0,5.0,34,0.00,,,0.00,weatherlink.com 1.10,2013-08-12 21:57:00,
2013-08-12 16:14:00,85.0,54.0,29.75,SSE,158,2.0,7.0,35,0.00,,,0.00,weatherlink.com 1.10,2013-08-12 22:14:00,
2013-08-12 16:27:00,84.5,55.0,29.74,SSE,163,4.0,9.0,36,0.00,,,0.00,weatherlink.com 1.10,2013-08-12 22:27:00,
2013-08-12 16:42:00,85.2,57.0,29.74,ESE,110,1.0,10.0,38,0.00,,,0.00,weatherlink.com 1.10,2013-08-12 22:42:00,
2013-08-12 16:57:00,86.3,57.0,29.74,WNW,296,3.0,10.0,37,0.00,,,0.00,weatherlink.com 1.10,2013-08-12 22:57:00,
2013-08-12 17:12:00,86.2,58.0,29.73,SSE,152,2.0,9.0,38,0.00,,,0.00,weatherlink.com 1.10,2013-08-12 23:12:00,
2013-08-12 17:27:00,85.2,60.0,29.72,SW,221,5.0,11.0,42,0.00,,,0.00,weatherlink.com 1.10,2013-08-12 23:27:00,
2013-08-12 17:42:00,83.6,60.0,29.73,West,259,3.0,11.0,45,0.00,,,0.00,weatherlink.com 1.10,2013-08-12 23:42:00,
2013-08-12 17:57:00,82.1,57.0,29.73,SSW,197,3.0,7.0,42,0.00,,,0.00,weatherlink.com 1.10,2013-08-12 23:57:00,
2013-08-12 18:12:00,81.3,56.0,29.74,SSW,198,3.0,7.0,42,0.00,,,0.00,weatherlink.com 1.10,2013-08-13 00:12:00,
2013-08-12 18:27:00,81.2,60.0,29.75,SSE,164,2.0,7.0,48,0.00,,,0.00,weatherlink.com 1.10,2013-08-13 00:27:00,
2013-08-12 18:42:00,80.1,59.0,29.74,WSW,237,3.0,4.0,49,0.00,,,0.00,weatherlink.com 1.10,2013-08-13 00:42:00,
2013-08-12 18:57:00,79.3,61.0,29.74,SW,229,3.0,7.0,53,0.00,,,0.00,weatherlink.com 1.10,2013-08-13 00:57:00,
2013-08-12 19:12:00,78.3,60.0,29.73,SW,214,1.0,5.0,53,0.00,,,0.00,weatherlink.com 1.10,2013-08-13 01:12:00,
2013-08-12 19:27:00,78.3,58.0,29.73,SE,139,4.0,6.0,50,0.00,,,0.00,weatherlink.com 1.10,2013-08-13 01:27:00,
2013-08-12 19:42:00,77.9,59.0,29.73,South,173,1.0,4.0,52,0.00,,,0.00,weatherlink.com 1.10,2013-08-13 01:42:00,
2013-08-12 19:57:00,77.1,58.0,29.73,SE,145,1.0,5.0,52,0.00,,,0.00,weatherlink.com 1.10,2013-08-13 01:57:00,
2013-08-12 20:12:00,76.8,58.0,29.74,SW,224,2.0,3.0,52,0.00,,,0.00,weatherlink.com 1.10,2013-08-13 02:12:00,
2013-08-12 20:27:00,76.4,57.0,29.74,SSW,207,2.0,2.0,51,0.00,,,0.00,weatherlink.com 1.10,2013-08-13 02:27:00,
2013-08-12 20:42:00,76.3,57.0,29.74,SE,131,0.0,1.0,51,0.00,,,0.00,weatherlink.com 1.10,2013-08-13 02:42:00,
2013-08-12 20:57:00,75.4,57.0,29.74,SW,217,0.0,1.0,54,0.00,,,0.00,weatherlink.com 1.10,2013-08-13 02:57:00,
2013-08-12 21:12:00,75.1,57.0,29.75,SE,138,1.0,4.0,54,0.00,,,0.00,weatherlink.com 1.10,2013-08-13 03:12:00,
2013-08-12 21:27:00,75.3,57.0,29.76,SSE,162,1.0,4.0,54,0.00,,,0.00,weatherlink.com 1.10,2013-08-13 03:27:00,
2013-08-12 21:42:00,75.4,56.0,29.76,ESE,123,1.0,5.0,52,0.00,,,0.00,weatherlink.com 1.10,2013-08-13 03:42:00,
2013-08-12 21:57:00,75.3,55.0,29.77,ESE,115,2.0,5.0,50,0.00,,,0.00,weatherlink.com 1.10,2013-08-13 03:57:00,
2013-08-12 22:12:00,75.3,55.0,29.77,SE,130,0.0,3.0,50,0.00,,,0.00,weatherlink.com 1.10,2013-08-13 04:12:00,
2013-08-12 22:27:00,75.2,56.0,29.77,SE,132,0.0,2.0,51,0.00,,,0.00,weatherlink.com 1.10,2013-08-13 04:27:00,
2013-08-12 22:42:00,75.1,55.0,29.77,SE,137,1.0,3.0,50,0.00,,,0.00,weatherlink.com 1.10,2013-08-13 04:42:00,
2013-08-12 22:57:00,75.2,55.0,29.77,SE,139,1.0,3.0,49,0.00,,,0.00,weatherlink.com 1.10,2013-08-13 04:57:00,
2013-08-12 23:12:00,74.9,54.0,29.77,SE,128,2.0,3.0,49,0.00,,,0.00,weatherlink.com 1.10,2013-08-13 05:12:00,
2013-08-12 23:27:00,74.3,54.0,29.78,SE,143,0.0,2.0,50,0.00,,,0.00,weatherlink.com 1.10,2013-08-13 05:27:00,
2013-08-12 23:42:00,72.6,54.0,29.78,SE,142,0.0,0.0,52,0.00,,,0.00,weatherlink.com 1.10,2013-08-13 05:42:00,
2013-08-12 23:57:00,71.8,53.0,29.79,SE,142,0.0,1.0,52,0.00,,,0.00,weatherlink.com 1.10,2013-08-13 05:57:00,